Time;durP1;ratioP1;P1;durP2;ratioP2;P2;SDS_P1;SDS_P2;PMS_P1;PMS_P2;Temp;Humidity;BMP_temperature;BMP_pressure;BME280_temperature;BME280_humidity;BME280_pressure;Samples;Min_cycle;Max_cycle;Signal;HPM_P1;HPM_P2
2022/01/17 00:00:34;;;;;;;;;46.00;35.50;;;;;8.01;70.03;103327.13;5060494;28;46889;-83
2022/01/17 00:03:00;;;;;;;;;52.00;41.00;;;;;8.03;69.55;103330.66;5061583;28;46326;-83
2022/01/17 00:05:27;;;;;;;;;57.00;44.00;;;;;8.02;69.91;103326.28;5060567;28;45386;-83
2022/01/17 00:07:52;;;;;;;;;53.25;42.75;;;;;8.03;70.15;103329.78;5060613;28;45456;-81
2022/01/17 00:10:18;;;;;;;;;56.00;43.25;;;;;8.06;70.07;103341.22;5061501;28;45483;-81
2022/01/17 00:12:45;;;;;;;;;54.50;42.50;;;;;8.03;69.85;103335.91;5061089;28;45406;-81
2022/01/17 00:15:21;;;;;;;;;55.25;41.00;;;;;8.06;69.91;103341.22;5060403;28;45817;-83
2022/01/17 00:17:52;;;;;;;;;58.75;43.75;;;;;8.06;70.08;103341.22;5061508;28;45563;-83
2022/01/17 00:20:25;;;;;;;;;50.25;39.75;;;;;8.03;70.17;103338.53;5061508;28;45350;-83
2022/01/17 00:22:51;;;;;;;;;50.75;39.25;;;;;8.04;69.93;103342.03;5060912;28;46235;-82
2022/01/17 00:25:17;;;;;;;;;56.00;42.50;;;;;8.04;69.89;103340.31;5051828;28;45445;-83
2022/01/17 00:27:42;;;;;;;;;57.25;44.75;;;;;8.06;70.41;103340.31;5060901;28;45425;-83
2022/01/17 00:30:09;;;;;;;;;55.25;43.75;;;;;8.05;70.16;103333.34;5060937;28;45351;-83
2022/01/17 00:32:35;;;;;;;;;58.50;44.00;;;;;8.07;69.44;103331.63;5055624;28;45304;-80
2022/01/17 00:35:00;;;;;;;;;58.00;43.75;;;;;8.09;70.09;103328.19;5060638;28;45497;-82
2022/01/17 00:37:26;;;;;;;;;56.25;43.75;;;;;8.07;70.09;103334.25;5060419;28;45428;-82
2022/01/17 00:39:51;;;;;;;;;59.00;44.50;;;;;8.07;69.76;103327.28;5061046;28;45259;-82
2022/01/17 00:42:16;;;;;;;;;54.50;40.00;;;;;8.08;70.21;103329.03;5058866;28;46166;-82
2022/01/17 00:44:42;;;;;;;;;49.75;37.25;;;;;8.09;70.00;103336.03;5060634;28;45182;-82
2022/01/17 00:47:07;;;;;;;;;53.75;39.50;;;;;8.07;70.02;103332.50;5060844;28;45461;-82
2022/01/17 00:49:32;;;;;;;;;52.75;36.50;;;;;8.10;69.97;103337.78;5061031;28;45275;-82
2022/01/17 00:51:58;;;;;;;;;44.00;35.25;;;;;8.10;69.98;103329.94;5053033;28;46618;-83
2022/01/17 00:54:23;;;;;;;;;49.50;38.50;;;;;8.10;69.72;103332.56;5051513;28;45503;-82
2022/01/17 00:56:49;;;;;;;;;48.50;38.00;;;;;8.14;70.23;103348.34;5048377;28;45513;-82
2022/01/17 00:59:14;;;;;;;;;49.00;35.00;;;;;8.15;69.93;103334.41;5053092;28;45513;-82
2022/01/17 01:01:40;;;;;;;;;47.75;37.50;;;;;8.14;69.67;103338.75;5055156;28;45338;-82
2022/01/17 01:04:05;;;;;;;;;46.25;36.75;;;;;8.16;70.23;103329.19;5060526;28;45311;-82
2022/01/17 01:06:30;;;;;;;;;44.25;36.50;;;;;8.17;70.49;103337.94;5060785;28;45169;-81
2022/01/17 01:08:57;;;;;;;;;51.00;38.25;;;;;8.16;70.00;103328.28;5060210;28;45481;-81
2022/01/17 01:11:22;;;;;;;;;45.50;37.75;;;;;8.18;70.28;103330.09;5059510;28;45492;-81
2022/01/17 01:13:48;;;;;;;;;39.00;33.75;;;;;8.19;69.85;103328.34;5060480;28;45509;-81
2022/01/17 01:29:18;;;;;;;;;48.50;39.00;;;;;8.17;70.32;103322.22;5057602;28;45460;-83
2022/01/17 01:31:54;;;;;;;;;47.25;40.00;;;;;8.17;70.52;103332.69;5060253;28;46299;-83
2022/01/17 01:34:28;;;;;;;;;49.25;38.50;;;;;8.20;70.40;103324.84;5060036;28;46112;-84
2022/01/17 01:36:54;;;;;;;;;51.25;38.50;;;;;8.19;69.94;103326.63;5059858;28;45362;-85
2022/01/17 01:39:23;;;;;;;;;49.75;38.50;;;;;8.21;70.29;103322.28;5058292;28;45414;-82
2022/01/17 01:41:50;;;;;;;;;47.25;38.00;;;;;8.21;69.85;103324.91;5059592;28;46186;-80
2022/01/17 01:44:21;;;;;;;;;45.25;37.50;;;;;8.21;70.09;103324.91;5059948;28;45217;-80
2022/01/17 01:46:48;;;;;;;;;49.25;39.25;;;;;8.24;69.97;103324.09;5060168;28;45405;-80
2022/01/17 01:49:15;;;;;;;;;44.00;36.25;;;;;8.22;70.34;103328.41;5048989;28;45442;-80
2022/01/17 01:51:41;;;;;;;;;49.25;39.00;;;;;8.21;70.26;103330.16;5059195;28;47274;-82
2022/01/17 01:54:08;;;;;;;;;48.50;36.50;;;;;8.24;70.54;103331.94;5059918;28;45817;-82
2022/01/17 01:56:39;;;;;;;;;49.75;36.00;;;;;8.22;70.25;103341.53;5060027;28;45420;-82
2022/01/17 01:59:05;;;;;;;;;51.75;38.75;;;;;8.22;70.06;103338.91;5053566;28;45483;-81
2022/01/17 02:01:31;;;;;;;;;47.25;37.00;;;;;8.24;70.21;103350.28;5057786;28;47159;-82
2022/01/17 02:03:56;;;;;;;;;40.75;35.00;;;;;8.22;70.32;103342.38;5059711;28;45334;-82
2022/01/17 02:06:22;;;;;;;;;54.00;41.00;;;;;8.24;70.21;103345.03;5058627;28;45458;-82
2022/01/17 02:08:47;;;;;;;;;52.50;36.50;;;;;8.24;70.10;103345.03;5058834;28;45355;-82
2022/01/17 02:11:13;;;;;;;;;54.25;41.50;;;;;8.26;70.41;103352.94;5059558;28;45394;-81
2022/01/17 02:13:39;;;;;;;;;51.00;36.75;;;;;8.29;70.36;103355.63;5059054;28;45266;-81
2022/01/17 02:16:10;;;;;;;;;47.50;37.75;;;;;8.28;70.45;103352.09;5059820;28;45282;-83
2022/01/17 02:18:36;;;;;;;;;49.25;37.75;;;;;8.31;70.23;103352.16;5058920;28;45458;-83
2022/01/17 02:21:17;;;;;;;;;48.00;36.25;;;;;8.31;70.51;103351.28;5059407;28;45556;-80
2022/01/17 02:23:46;;;;;;;;;49.00;37.50;;;;;8.28;70.13;103340.72;5058605;28;45230;-81
2022/01/17 02:26:13;;;;;;;;;47.00;34.25;;;;;8.27;69.97;103339.84;5058917;28;45425;-82
2022/01/17 02:28:43;;;;;;;;;50.00;37.50;;;;;8.29;70.44;103337.28;5054341;28;45416;-83
2022/01/17 02:31:08;;;;;;;;;47.00;37.75;;;;;8.30;70.26;103341.63;5059462;28;45362;-84
2022/01/17 02:33:35;;;;;;;;;49.25;36.75;;;;;8.30;70.19;103339.91;5059145;28;45247;-84
2022/01/17 02:36:01;;;;;;;;;49.50;36.00;;;;;8.30;70.46;103332.03;5059253;28;45286;-84
2022/01/17 02:38:27;;;;;;;;;44.25;34.50;;;;;8.33;70.31;103333.84;5058941;28;45445;-84
2022/01/17 02:40:54;;;;;;;;;48.00;37.00;;;;;8.33;70.35;103332.09;5059238;28;45531;-86
2022/01/17 02:43:21;;;;;;;;;47.25;36.25;;;;;8.32;70.18;103326.84;5059387;28;45381;-85
2022/01/17 02:48:30;;;;;;;;;43.75;35.50;;;;;8.33;69.74;103321.63;5056113;28;45477;-85
2022/01/17 02:50:57;;;;;;;;;46.50;37.50;;;;;8.33;69.84;103324.25;5060571;28;46233;-88
2022/01/17 02:53:23;;;;;;;;;47.75;37.00;;;;;8.33;70.49;103316.38;5061184;28;45777;-86
2022/01/17 02:55:54;;;;;;;;;44.00;36.00;;;;;8.33;69.79;103315.50;5062744;28;45252;-90
2022/01/17 02:58:23;;;;;;;;;46.00;36.00;;;;;8.35;70.19;103319.03;5051016;28;45332;-92
2022/01/17 03:00:50;;;;;;;;;49.00;35.25;;;;;8.36;69.97;103314.66;5062982;28;46635;-93
2022/01/17 03:03:21;;;;;;;;;48.00;37.00;;;;;8.35;70.26;103316.41;5063069;28;45169;-93
2022/01/17 03:05:48;;;;;;;;;41.75;35.50;;;;;8.35;70.15;103324.25;5061561;28;45272;-95
2022/01/17 03:08:15;;;;;;;;;45.00;35.50;;;;;8.35;69.95;103331.25;5061850;28;46076;-96
2022/01/17 03:10:43;;;;;;;;;51.75;36.75;;;;;8.35;70.09;103339.09;5062293;28;47062;-96
2022/01/17 03:13:24;;;;;;;;;43.25;35.00;;;;;8.36;70.37;103343.50;5062884;28;45936;-96
2022/01/17 03:15:56;;;;;;;;;47.75;36.00;;;;;8.31;69.89;103336.44;5063780;28;45279;-96
2022/01/17 03:18:24;;;;;;;;;49.25;37.25;;;;;8.31;70.30;103339.06;5064007;28;46914;-96
2022/01/17 03:20:49;;;;;;;;;50.50;36.75;;;;;8.33;70.18;103347.84;5063768;28;47277;-95
2022/01/17 03:23:15;;;;;;;;;48.25;37.75;;;;;8.29;70.03;103338.16;5051412;28;45317;-96
2022/01/17 03:25:40;;;;;;;;;44.50;36.75;;;;;8.31;70.13;103349.56;5061989;28;45421;-96
2022/01/17 03:28:06;;;;;;;;;47.25;35.25;;;;;8.35;70.54;103349.59;5062062;28;45923;-94
2022/01/17 03:30:33;;;;;;;;;49.25;37.75;;;;;8.32;70.44;103347.81;5060744;28;47602;-92
2022/01/17 03:33:04;;;;;;;;;44.00;37.50;;;;;8.31;70.75;103344.31;5060451;28;45771;-88
2022/01/17 03:35:30;;;;;;;;;49.00;37.50;;;;;8.32;70.72;103353.91;5062019;28;45318;-84
2022/01/17 03:37:55;;;;;;;;;52.00;39.50;;;;;8.34;69.93;103361.84;5051749;28;45157;-83
2022/01/17 03:40:21;;;;;;;;;47.75;39.25;;;;;8.34;70.31;103359.22;5058096;28;45512;-84
2022/01/17 03:42:46;;;;;;;;;51.25;39.00;;;;;8.35;70.65;103355.72;5061815;28;45418;-84
2022/01/17 03:45:12;;;;;;;;;51.50;39.25;;;;;8.35;70.54;103360.06;5062144;28;45382;-84
2022/01/17 03:47:41;;;;;;;;;53.50;40.00;;;;;8.37;70.50;103363.63;5059855;28;45758;-84
2022/01/17 03:50:11;;;;;;;;;51.25;39.25;;;;;8.37;70.30;103363.63;5061928;28;46621;-85
2022/01/17 03:52:37;;;;;;;;;52.75;42.00;;;;;8.40;70.67;103361.03;5060422;28;45504;-84
2022/01/17 03:55:02;;;;;;;;;58.00;43.75;;;;;8.39;70.66;103365.41;5061791;28;45500;-85
2022/01/17 03:57:28;;;;;;;;;44.75;36.25;;;;;8.42;70.34;103380.31;5060822;28;45472;-85
2022/01/17 03:59:53;;;;;;;;;48.75;39.00;;;;;8.44;70.52;103379.47;5060400;28;46261;-83
2022/01/17 04:02:18;;;;;;;;;58.00;44.75;;;;;8.43;70.10;103375.09;5060936;28;45268;-83
2022/01/17 04:04:44;;;;;;;;;54.75;43.00;;;;;8.47;70.61;103389.13;5061915;28;45339;-79
2022/01/17 04:07:09;;;;;;;;;56.00;39.75;;;;;8.47;70.78;103383.88;5060278;28;45349;-83
2022/01/17 04:09:35;;;;;;;;;54.00;40.75;;;;;8.50;70.83;103390.94;5061430;28;46228;-83
2022/01/17 04:12:00;;;;;;;;;61.00;44.00;;;;;8.51;70.73;103390.09;5061644;28;45447;-83
2022/01/17 04:14:25;;;;;;;;;54.50;41.25;;;;;8.50;70.52;103389.19;5061193;28;45268;-83
2022/01/17 04:16:51;;;;;;;;;53.25;42.25;;;;;8.52;70.46;103390.09;5055409;28;45227;-83
2022/01/17 04:19:19;;;;;;;;;55.00;41.50;;;;;8.53;71.07;103394.50;5054847;28;45279;-82
2022/01/17 04:21:46;;;;;;;;;50.25;41.25;;;;;8.52;70.42;103392.72;5061086;28;45271;-82
2022/01/17 04:24:12;;;;;;;;;56.00;41.50;;;;;8.52;70.61;103395.34;5061681;28;45501;-84
2022/01/17 04:26:38;;;;;;;;;50.00;40.50;;;;;8.52;70.50;103397.97;5059006;28;45458;-84
2022/01/17 04:29:03;;;;;;;;;53.25;41.50;;;;;8.53;70.39;103405.00;5060658;28;45402;-85
2022/01/17 04:31:29;;;;;;;;;48.25;38.00;;;;;8.52;70.52;103408.44;5061079;28;45326;-86
2022/01/17 04:33:55;;;;;;;;;46.00;36.75;;;;;8.52;70.94;103408.44;5061246;28;45385;-87
2022/01/17 04:36:20;;;;;;;;;54.00;39.75;;;;;8.51;70.51;103390.97;5059588;28;45980;-85
2022/01/17 04:38:46;;;;;;;;;52.50;39.25;;;;;8.54;70.55;103393.63;5054725;28;48502;-85
2022/01/17 04:41:17;;;;;;;;;48.00;38.00;;;;;8.53;70.67;103391.88;5061394;28;45157;-85
2022/01/17 04:43:55;;;;;;;;;51.00;40.50;;;;;8.55;70.69;103384.94;5061046;28;45341;-85
2022/01/17 04:46:21;;;;;;;;;43.00;36.00;;;;;8.53;71.09;103383.13;5060952;28;45255;-85
2022/01/17 04:48:46;;;;;;;;;48.75;38.25;;;;;8.53;70.36;103385.75;5053299;28;46152;-87
2022/01/17 04:51:12;;;;;;;;;53.75;41.50;;;;;8.54;70.52;103388.38;5060544;28;45464;-86
2022/01/17 04:53:38;;;;;;;;;43.75;37.50;;;;;8.52;70.69;103392.72;5060648;28;45224;-87
2022/01/17 04:56:04;;;;;;;;;47.25;36.00;;;;;8.55;70.87;103390.16;5058409;28;45473;-88
2022/01/17 04:58:29;;;;;;;;;50.25;38.75;;;;;8.54;70.98;103400.63;5060316;28;46378;-88
2022/01/17 05:00:55;;;;;;;;;53.00;38.00;;;;;8.54;70.02;103403.25;5060301;28;45321;-87
2022/01/17 05:03:23;;;;;;;;;50.50;39.00;;;;;8.53;70.90;103415.47;5057521;28;45224;-88
2022/01/17 05:05:49;;;;;;;;;56.25;42.75;;;;;8.55;70.44;103407.63;5060299;28;45448;-87
2022/01/17 05:08:15;;;;;;;;;50.00;39.75;;;;;8.52;70.77;103413.69;5060397;28;45547;-88
2022/01/17 05:10:50;;;;;;;;;49.00;39.00;;;;;8.53;70.30;103402.38;5055285;28;45826;-88
2022/01/17 05:13:20;;;;;;;;;53.00;40.50;;;;;8.53;70.90;103399.75;5059833;28;45379;-87
2022/01/17 05:15:53;;;;;;;;;50.00;39.00;;;;;8.54;70.96;103404.13;5059866;28;45445;-84
2022/01/17 05:20:50;;;;;;;;;49.25;38.75;;;;;8.54;70.58;103419.00;5059697;28;45952;-86
2022/01/17 05:23:15;;;;;;;;;44.25;35.25;;;;;8.53;70.58;103412.84;5060235;28;45298;-86
2022/01/17 05:25:41;;;;;;;;;49.75;37.50;;;;;8.52;70.55;103418.94;5060019;28;45360;-81
2022/01/17 05:28:06;;;;;;;;;53.50;41.50;;;;;8.54;70.26;103421.63;5059824;28;46377;-85
2022/01/17 05:30:32;;;;;;;;;53.00;39.00;;;;;8.49;69.95;103413.66;5056061;28;45362;-87
2022/01/17 05:32:58;;;;;;;;;53.00;41.50;;;;;8.49;70.46;103429.38;5054567;28;45330;-86
2022/01/17 05:35:24;;;;;;;;;45.50;35.75;;;;;8.46;70.10;103418.84;5060110;28;45190;-86
2022/01/17 05:37:49;;;;;;;;;54.25;38.50;;;;;8.44;69.90;103423.16;5058893;28;45600;-84
2022/01/17 05:40:16;;;;;;;;;51.75;40.50;;;;;8.41;69.73;103428.34;5058266;28;45678;-84
2022/01/17 05:42:41;;;;;;;;;46.75;36.00;;;;;8.39;69.59;103430.94;5060169;28;45291;-84
2022/01/17 05:45:08;;;;;;;;;49.00;37.75;;;;;8.36;69.80;103427.38;5060057;28;45588;-84
2022/01/17 05:47:34;;;;;;;;;52.00;39.25;;;;;8.35;70.04;103418.63;5056454;28;46180;-84
2022/01/17 05:50:02;;;;;;;;;46.75;35.00;;;;;8.35;69.64;103433.44;5059150;28;45318;-77
2022/01/17 05:52:30;;;;;;;;;55.50;40.75;;;;;8.32;70.26;103437.78;5055454;28;45205;-79
2022/01/17 05:54:56;;;;;;;;;49.75;39.25;;;;;8.29;69.55;103434.22;5056264;28;45394;-79
2022/01/17 05:57:23;;;;;;;;;51.50;38.00;;;;;8.27;69.45;103438.56;5063078;28;45571;-79
2022/01/17 05:59:48;;;;;;;;;47.25;37.25;;;;;8.23;70.17;103448.06;5071032;27;45876;-79
2022/01/17 06:02:14;;;;;;;;;51.00;41.00;;;;;8.22;69.94;103451.56;5059614;28;45454;-79
2022/01/17 06:04:39;;;;;;;;;50.25;36.00;;;;;8.17;69.62;103448.81;5046795;28;45558;-78
2022/01/17 06:07:05;;;;;;;;;42.00;36.50;;;;;8.14;69.16;103454.03;5044005;28;45453;-78
2022/01/17 06:09:31;;;;;;;;;48.00;38.00;;;;;8.09;69.20;103451.31;5046780;28;45815;-81
2022/01/17 06:11:57;;;;;;;;;44.50;36.50;;;;;8.06;69.21;103447.72;5055337;28;45378;-82
2022/01/17 06:14:23;;;;;;;;;46.00;38.50;;;;;7.99;69.05;103439.75;5051008;28;46565;-80
2022/01/17 06:16:49;;;;;;;;;53.50;40.75;;;;;7.95;68.90;103442.28;5051729;28;45405;-80
2022/01/17 06:19:15;;;;;;;;;49.50;39.25;;;;;7.93;68.94;103444.84;5046508;28;45239;-80
2022/01/17 06:21:41;;;;;;;;;53.75;39.75;;;;;7.87;69.03;103442.09;5057093;28;45267;-81
2022/01/17 06:24:09;;;;;;;;;51.25;40.25;;;;;7.83;68.72;103446.38;5052024;28;45400;-81
2022/01/17 06:26:36;;;;;;;;;54.50;41.50;;;;;7.80;69.08;103448.03;5044237;28;45631;-81
2022/01/17 06:29:02;;;;;;;;;47.75;36.00;;;;;7.74;69.33;103443.53;5057602;28;45313;-82
2022/01/17 06:31:28;;;;;;;;;56.25;43.50;;;;;7.70;69.05;103449.56;5042002;28;45286;-82
2022/01/17 06:33:53;;;;;;;;;55.25;40.75;;;;;7.66;69.26;103461.69;5051762;28;45322;-81
2022/01/17 06:36:18;;;;;;;;;47.00;38.00;;;;;7.64;69.07;103466.91;5046401;28;45399;-81
2022/01/17 06:38:44;;;;;;;;;48.50;39.75;;;;;7.60;69.09;103466.78;5051741;28;45482;-81
2022/01/17 06:41:09;;;;;;;;;31.25;22.75;;;;;7.57;68.97;103471.94;5051877;28;46519;-81
2022/01/17 06:43:34;;;;;;;;;54.00;42.75;;;;;7.54;69.17;103478.88;5052711;28;45391;-81
2022/01/17 06:46:00;;;;;;;;;51.75;42.25;;;;;7.48;68.80;103470.88;5047841;28;45460;-81
2022/01/17 06:48:26;;;;;;;;;60.50;45.75;;;;;7.47;69.13;103487.44;5048482;28;45378;-82
2022/01/17 06:50:51;;;;;;;;;57.25;46.00;;;;;7.41;68.89;103496.00;5047075;28;45513;-82
2022/01/17 06:53:17;;;;;;;;;58.25;43.25;;;;;7.40;69.14;103502.09;5049787;28;45327;-82
2022/01/17 06:55:42;;;;;;;;;55.75;42.50;;;;;7.39;68.79;103495.09;5048681;28;45435;-77
2022/01/17 06:58:07;;;;;;;;;55.00;42.75;;;;;7.34;68.84;103482.72;5046537;28;45556;-77
2022/01/17 07:00:33;;;;;;;;;59.25;45.50;;;;;7.31;69.09;103481.81;5055377;28;45489;-79
2022/01/17 07:02:58;;;;;;;;;57.75;44.75;;;;;7.29;68.57;103480.00;5058377;28;45503;-77
2022/01/17 07:05:24;;;;;;;;;63.00;48.50;;;;;7.27;69.07;103479.97;5058716;28;45430;-77
2022/01/17 07:07:49;;;;;;;;;59.75;48.25;;;;;7.24;68.82;103497.31;5057722;28;45349;-77
2022/01/17 07:10:15;;;;;;;;;62.50;48.50;;;;;7.25;69.33;103496.47;5059351;28;45286;-81
2022/01/17 07:12:40;;;;;;;;;69.75;52.00;;;;;7.24;69.21;103492.06;5058246;28;45464;-77
2022/01/17 07:15:08;;;;;;;;;64.50;51.00;;;;;7.21;69.26;103511.19;5058555;28;46207;-77
2022/01/17 07:17:34;;;;;;;;;64.50;49.50;;;;;7.23;69.43;103529.56;5058458;28;45450;-77
2022/01/17 07:19:59;;;;;;;;;63.00;48.00;;;;;7.24;69.43;103547.00;5058952;28;45345;-77
2022/01/17 07:22:27;;;;;;;;;64.00;48.75;;;;;7.24;69.53;103557.47;5058565;28;45206;-77
2022/01/17 07:24:54;;;;;;;;;64.75;50.50;;;;;7.25;69.82;103565.38;5058163;28;45475;-77
2022/01/17 07:27:19;;;;;;;;;62.50;50.25;;;;;7.25;69.66;103568.00;5053100;28;45884;-77
2022/01/17 07:29:45;;;;;;;;;65.50;50.75;;;;;7.27;69.73;103563.69;5058205;28;45404;-78
2022/01/17 07:32:11;;;;;;;;;69.00;53.25;;;;;7.30;69.54;103550.69;5058835;28;45436;-77
2022/01/17 07:34:37;;;;;;;;;66.75;53.75;;;;;7.31;69.83;103543.72;5058444;28;45294;-77
2022/01/17 07:37:03;;;;;;;;;73.50;54.25;;;;;7.29;70.00;103525.38;5058176;28;45227;-77
2022/01/17 07:39:28;;;;;;;;;69.25;53.25;;;;;7.34;69.80;103542.91;5060792;28;45281;-77
2022/01/17 07:41:54;;;;;;;;;66.75;50.00;;;;;7.33;69.97;103547.28;5062099;28;45348;-77
2022/01/17 07:44:19;;;;;;;;;64.25;50.00;;;;;7.34;69.70;103535.94;5061284;28;45263;-77
2022/01/17 07:46:58;;;;;;;;;68.75;52.75;;;;;7.37;70.50;103536.03;5061802;28;45545;-78
2022/01/17 07:49:25;;;;;;;;;70.50;54.00;;;;;7.39;70.39;103544.81;5043203;28;45344;-78
2022/01/17 07:51:59;;;;;;;;;54.50;42.50;;;;;7.40;69.98;103533.50;5057638;28;45408;-78
2022/01/17 07:54:30;;;;;;;;;68.25;53.00;;;;;7.43;70.02;103554.50;5061203;28;45402;-78
2022/01/17 07:56:57;;;;;;;;;71.50;56.25;;;;;7.42;70.30;103552.75;5061785;28;45152;-78
2022/01/17 07:59:23;;;;;;;;;79.00;60.75;;;;;7.42;70.12;103557.97;5061544;28;45425;-77
2022/01/17 08:01:49;;;;;;;;;69.25;55.00;;;;;7.43;70.47;103562.34;5061645;28;45297;-77
2022/01/17 08:04:14;;;;;;;;;69.50;54.25;;;;;7.47;70.29;103554.59;5052893;28;45406;-77
2022/01/17 08:06:40;;;;;;;;;63.50;50.75;;;;;7.49;69.84;103563.38;5061327;28;45436;-77
2022/01/17 08:09:29;;;;;;;;;61.75;46.50;;;;;7.47;70.21;103560.72;5058811;28;45335;-78
2022/01/17 08:11:55;;;;;;;;;65.25;48.00;;;;;7.50;70.21;103570.38;5061533;28;45302;-77
2022/01/17 08:14:23;;;;;;;;;59.50;46.75;;;;;7.49;69.72;103558.13;5059701;28;45675;-77
2022/01/17 08:16:48;;;;;;;;;54.50;43.25;;;;;7.50;70.01;103571.28;5060849;28;45743;-77
2022/01/17 08:19:14;;;;;;;;;63.75;50.00;;;;;7.49;69.83;103563.38;5061336;28;45280;-77
2022/01/17 08:21:40;;;;;;;;;53.50;43.50;;;;;7.52;69.97;103574.81;5060731;28;45559;-77
2022/01/17 08:24:05;;;;;;;;;56.75;43.75;;;;;7.50;69.60;103581.75;5060632;28;46301;-77
2022/01/17 08:26:31;;;;;;;;;54.50;41.00;;;;;7.48;70.05;103580.78;5057626;28;45276;-77
2022/01/17 08:28:56;;;;;;;;;54.00;44.25;;;;;7.49;69.62;103589.53;5060448;28;45243;-76
2022/01/17 08:31:22;;;;;;;;;54.00;43.25;;;;;7.49;69.86;103579.06;5061046;28;45275;-76
2022/01/17 08:33:47;;;;;;;;;54.25;43.00;;;;;7.48;70.20;103577.31;5060960;28;45424;-76
2022/01/17 08:36:14;;;;;;;;;48.75;42.00;;;;;7.47;69.81;103578.16;5060553;28;45235;-76
2022/01/17 08:38:40;;;;;;;;;59.50;44.75;;;;;7.45;69.74;103575.50;5058089;28;45287;-77
2022/01/17 08:41:05;;;;;;;;;61.50;45.00;;;;;7.46;69.81;103589.47;5061056;28;45508;-77
2022/01/17 08:43:31;;;;;;;;;57.50;44.25;;;;;7.43;70.21;103588.53;5060526;28;46468;-76
2022/01/17 08:45:56;;;;;;;;;54.00;43.25;;;;;7.44;69.97;103589.41;5060883;28;45584;-77
2022/01/17 08:48:24;;;;;;;;;58.75;43.25;;;;;7.45;69.95;103593.81;5061000;28;45493;-76
2022/01/17 08:50:50;;;;;;;;;61.00;44.75;;;;;7.42;70.08;103589.38;5060930;28;45501;-76
2022/01/17 08:53:16;;;;;;;;;55.50;46.25;;;;;7.42;69.80;103585.88;5060057;28;45423;-76
2022/01/17 08:55:44;;;;;;;;;61.75;46.50;;;;;7.43;69.54;103593.75;5060753;28;45848;-76
2022/01/17 08:58:11;;;;;;;;;63.25;46.50;;;;;7.41;69.88;103586.72;5060991;28;45286;-76
2022/01/17 09:00:37;;;;;;;;;60.25;45.00;;;;;7.40;70.13;103591.09;5060671;28;46250;-76
2022/01/17 09:03:03;;;;;;;;;61.25;48.25;;;;;7.42;70.09;103598.97;5060564;28;46659;-76
2022/01/17 09:05:31;;;;;;;;;56.50;45.75;;;;;7.40;69.41;103596.31;5060420;28;45396;-75
2022/01/17 09:07:57;;;;;;;;;63.50;49.25;;;;;7.38;69.84;103600.59;5054368;28;45485;-77
2022/01/17 09:10:23;;;;;;;;;68.25;48.50;;;;;7.40;70.15;103601.56;5060612;28;45364;-77
2022/01/17 09:12:51;;;;;;;;;60.25;47.75;;;;;7.40;70.41;103595.44;5060317;28;45459;-77
2022/01/17 09:15:16;;;;;;;;;56.50;46.00;;;;;7.41;70.31;103603.31;5060674;28;45236;-77
2022/01/17 09:17:41;;;;;;;;;63.00;47.25;;;;;7.45;70.54;103620.00;5060318;28;45736;-77
2022/01/17 09:20:07;;;;;;;;;61.00;48.25;;;;;7.46;70.59;103623.50;5060316;28;45413;-77
2022/01/17 09:22:33;;;;;;;;;66.75;51.00;;;;;7.50;70.32;103622.72;5060026;28;45376;-77
2022/01/17 09:24:59;;;;;;;;;62.75;47.50;;;;;7.58;70.24;103641.25;5060739;28;45412;-77
2022/01/17 09:27:26;;;;;;;;;61.25;45.75;;;;;7.61;70.98;103647.44;5060198;28;45435;-77
2022/01/17 09:29:52;;;;;;;;;61.50;45.00;;;;;7.67;70.87;103645.84;5060079;28;45209;-77
2022/01/17 09:32:18;;;;;;;;;58.25;44.25;;;;;7.76;71.41;103652.22;5060247;28;45408;-77
2022/01/17 09:34:46;;;;;;;;;55.50;42.75;;;;;7.82;70.85;103661.97;5067906;28;45431;-77
2022/01/17 09:37:12;;;;;;;;;51.00;41.25;;;;;7.89;71.01;103665.63;5067107;28;45578;-77
2022/01/17 09:39:38;;;;;;;;;52.25;39.50;;;;;7.96;71.12;103664.03;5060150;28;45474;-77
2022/01/17 09:42:05;;;;;;;;;55.75;42.25;;;;;8.04;70.88;103665.13;5060119;28;46176;-77
2022/01/17 09:44:32;;;;;;;;;42.00;35.00;;;;;8.12;71.14;103664.44;5060143;28;45343;-77
2022/01/17 09:46:58;;;;;;;;;49.75;38.00;;;;;8.19;70.94;103655.88;5059492;28;45162;-77
2022/01/17 09:49:33;;;;;;;;;49.00;38.00;;;;;8.24;70.61;103651.63;5060279;28;45219;-77
2022/01/17 09:52:07;;;;;;;;;61.25;46.25;;;;;8.32;70.57;103650.06;5059545;28;45427;-77
2022/01/17 09:54:39;;;;;;;;;55.75;42.00;;;;;8.38;70.39;103648.44;5059953;28;45811;-77
2022/01/17 09:57:06;;;;;;;;;57.00;43.00;;;;;8.39;70.29;103653.72;5059788;28;45412;-76
2022/01/17 09:59:33;;;;;;;;;62.00;48.00;;;;;8.46;70.11;103665.25;5059884;28;45240;-76
2022/01/17 10:01:59;;;;;;;;;51.75;42.25;;;;;8.51;70.43;103671.47;5058586;28;46062;-76
2022/01/17 10:04:25;;;;;;;;;48.25;39.25;;;;;8.62;70.04;103673.47;5059215;28;45430;-77
2022/01/17 10:06:56;;;;;;;;;54.75;44.00;;;;;8.68;69.86;103691.97;5058871;28;45279;-76
2022/01/17 10:09:24;;;;;;;;;61.00;43.00;;;;;8.72;69.77;103674.56;5059828;28;45445;-76
2022/01/17 10:12:02;;;;;;;;;52.25;41.25;;;;;8.82;69.41;103683.53;5063611;28;45393;-76
2022/01/17 10:14:30;;;;;;;;;61.50;44.25;;;;;8.86;69.34;103686.28;5059181;28;45508;-76
2022/01/17 10:16:56;;;;;;;;;60.75;46.00;;;;;8.91;69.42;103682.84;5059682;28;45379;-76
2022/01/17 10:19:25;;;;;;;;;49.25;39.00;;;;;8.95;69.01;103692.56;5059712;28;45473;-76
2022/01/17 10:21:55;;;;;;;;;53.00;42.00;;;;;8.97;69.00;103696.97;5059218;28;45330;-76
2022/01/17 10:37:17;;;;;;;;;60.00;42.00;;;;;9.12;68.82;103703.41;5060834;28;47061;-75
2022/01/17 10:39:58;;;;;;;;;53.25;39.00;;;;;9.18;68.53;103708.81;5056449;28;45516;-76
2022/01/17 10:42:42;;;;;;;;;53.50;44.75;;;;;9.25;68.07;103716.78;5056194;28;45410;-76
2022/01/17 10:45:21;;;;;;;;;48.75;38.25;;;;;9.28;68.13;103716.88;5061053;28;45397;-76
2022/01/17 10:47:48;;;;;;;;;49.25;39.50;;;;;9.30;68.50;103707.28;5059483;28;45461;-76
2022/01/17 10:50:20;;;;;;;;;48.00;39.25;;;;;9.34;68.46;103699.50;5059029;28;45370;-76
2022/01/17 10:52:48;;;;;;;;;46.25;36.00;;;;;9.40;67.99;103704.00;5065341;28;46167;-76
2022/01/17 10:55:32;;;;;;;;;53.75;40.00;;;;;9.45;67.76;103691.84;5065205;27;45248;-76
2022/01/17 10:58:04;;;;;;;;;47.75;37.75;;;;;9.49;67.92;103684.00;5059405;28;45188;-76
2022/01/17 11:00:32;;;;;;;;;49.75;40.00;;;;;9.53;67.62;103683.22;5054207;28;45487;-76
2022/01/17 11:03:01;;;;;;;;;49.50;39.75;;;;;9.54;68.21;103677.09;5051541;28;45290;-76
2022/01/17 11:05:32;;;;;;;;;45.50;37.00;;;;;9.56;68.06;103663.16;5058274;28;45536;-76
2022/01/17 11:08:00;;;;;;;;;50.00;37.50;;;;;9.63;68.01;103664.13;5052130;28;45484;-76
2022/01/17 11:10:29;;;;;;;;;42.75;34.75;;;;;9.64;68.04;103650.16;5056341;28;45453;-76
2022/01/17 11:12:57;;;;;;;;;46.50;36.75;;;;;9.65;67.55;103641.44;5059116;28;45418;-76
2022/01/17 11:15:23;;;;;;;;;47.75;40.00;;;;;9.64;67.75;103650.16;5062345;28;45452;-76
2022/01/17 11:17:52;;;;;;;;;47.25;38.25;;;;;9.64;67.73;103652.78;5056650;28;45488;-76
2022/01/17 11:20:21;;;;;;;;;47.75;38.00;;;;;9.64;67.58;103644.00;5059154;28;45530;-76
2022/01/17 11:22:50;;;;;;;;;51.75;38.00;;;;;9.64;67.27;103642.28;5059887;28;45545;-76
2022/01/17 11:25:25;;;;;;;;;53.25;40.00;;;;;9.63;67.42;103647.53;5061034;28;46003;-76
2022/01/17 11:27:51;;;;;;;;;55.25;42.00;;;;;9.63;67.04;103653.63;5060999;28;45521;-76
2022/01/17 11:30:18;;;;;;;;;51.00;41.25;;;;;9.59;67.33;103651.81;5060564;28;45377;-76
2022/01/17 11:32:45;;;;;;;;;50.25;39.75;;;;;9.58;67.36;103650.03;5059164;28;45968;-76
2022/01/17 11:35:13;;;;;;;;;52.00;38.00;;;;;9.56;67.62;103642.13;5060843;28;45382;-76
2022/01/17 11:37:42;;;;;;;;;50.25;38.00;;;;;9.56;67.26;103636.88;5059292;28;45541;-76
2022/01/17 11:40:09;;;;;;;;;48.00;37.50;;;;;9.56;67.27;103646.50;5059918;27;46192;-76
2022/01/17 11:42:39;;;;;;;;;50.50;37.50;;;;;9.56;67.21;103641.25;5060891;28;46629;-76
2022/01/17 11:45:22;;;;;;;;;42.75;35.50;;;;;9.54;67.82;103635.09;5061087;28;45229;-76
2022/01/17 11:48:19;;;;;;;;;67.00;50.25;;;;;9.50;67.24;103638.53;5057414;28;45501;-76